Time;durP1;ratioP1;P1;durP2;ratioP2;P2;SDS_P1;SDS_P2;PMS_P1;PMS_P2;Temp;Humidity;BMP_temperature;BMP_pressure;BME280_temperature;BME280_humidity;BME280_pressure;Samples;Min_cycle;Max_cycle;Signal;HPM_P1;HPM_P2
2024/04/05 00:02:07;;;;;;;4.40;2.30;;;13.70;82.80;;;;;;5014776;28;20461;-78
2024/04/05 00:04:33;;;;;;;3.97;2.00;;;13.60;82.80;;;;;;5017724;28;20197;-76
2024/04/05 00:06:58;;;;;;;2.93;2.40;;;13.60;83.00;;;;;;5014429;28;20185;-75
2024/04/05 00:09:24;;;;;;;4.83;2.30;;;13.50;83.10;;;;;;5018964;28;20181;-75
2024/04/05 00:11:49;;;;;;;8.30;2.80;;;13.40;83.40;;;;;;5004452;28;20198;-74
2024/04/05 00:14:18;;;;;;;4.60;2.97;;;13.30;83.80;;;;;;5013920;28;20208;-75
2024/04/05 00:16:46;;;;;;;7.13;2.90;;;13.30;84.00;;;;;;5014567;28;20186;-73
2024/04/05 00:19:11;;;;;;;6.33;2.67;;;13.40;84.10;;;;;;5005443;28;20572;-77
2024/04/05 00:21:37;;;;;;;5.80;2.70;;;13.40;83.80;;;;;;5005658;28;20488;-75
2024/04/05 00:24:02;;;;;;;3.00;1.93;;;13.40;83.60;;;;;;5017226;28;20193;-75
2024/04/05 00:26:28;;;;;;;9.20;2.73;;;13.40;83.10;;;;;;5011176;28;20216;-75
2024/04/05 00:28:54;;;;;;;5.70;2.50;;;13.50;83.10;;;;;;5015545;28;20223;-76
2024/04/05 00:31:19;;;;;;;6.37;3.07;;;13.60;82.50;;;;;;5016516;28;20586;-76
2024/04/05 00:33:45;;;;;;;4.90;2.10;;;13.70;82.20;;;;;;5010558;28;20181;-78
2024/04/05 00:36:15;;;;;;;6.13;2.07;;;13.70;81.70;;;;;;5012358;28;20658;-75
2024/04/05 00:38:41;;;;;;;3.37;2.20;;;13.80;81.50;;;;;;5007437;28;20267;-75
2024/04/05 00:41:08;;;;;;;2.60;1.90;;;13.80;81.70;;;;;;5006125;28;20980;-72
2024/04/05 00:43:35;;;;;;;8.23;2.27;;;13.80;81.70;;;;;;5012370;28;20190;-74
2024/04/05 00:46:02;;;;;;;6.13;1.83;;;13.80;81.50;;;;;;5011768;28;20428;-74
2024/04/05 00:48:28;;;;;;;3.60;2.40;;;13.80;81.50;;;;;;5012238;28;20437;-74
2024/04/05 00:50:56;;;;;;;3.13;2.10;;;13.80;81.70;;;;;;5011873;28;20473;-76
2024/04/05 00:53:32;;;;;;;3.97;2.03;;;13.80;81.90;;;;;;5008267;28;20201;-74
2024/04/05 00:55:59;;;;;;;6.23;1.90;;;13.80;81.90;;;;;;5011922;28;20436;-75
2024/04/05 00:58:26;;;;;;;6.20;2.90;;;13.90;81.90;;;;;;5013290;28;20477;-79
2024/04/05 01:00:53;;;;;;;3.43;1.93;;;13.90;81.50;;;;;;5006841;28;20805;-76
2024/04/05 01:03:20;;;;;;;6.13;2.50;;;13.90;81.40;;;;;;5007179;28;20437;-76
2024/04/05 01:05:49;;;;;;;6.60;2.57;;;14.00;81.10;;;;;;5003535;28;20421;-76
2024/04/05 01:08:15;;;;;;;3.93;2.37;;;14.00;81.10;;;;;;5001866;28;20444;-74
2024/04/05 01:10:41;;;;;;;5.30;2.50;;;14.00;81.20;;;;;;5006802;28;20892;-73
2024/04/05 01:13:08;;;;;;;4.93;2.50;;;14.00;81.40;;;;;;4994213;28;20417;-75
2024/04/05 01:15:35;;;;;;;5.27;2.80;;;14.00;81.70;;;;;;5006701;28;20424;-75
2024/04/05 01:18:09;;;;;;;8.43;3.00;;;14.00;81.50;;;;;;5011289;28;20460;-75
2024/04/05 01:20:37;;;;;;;6.77;2.83;;;14.00;81.70;;;;;;5004535;28;20432;-76
2024/04/05 01:23:05;;;;;;;4.73;2.10;;;14.10;81.40;;;;;;5016427;28;20468;-75
2024/04/05 01:25:31;;;;;;;4.00;2.17;;;14.00;81.40;;;;;;5011726;28;20457;-74
2024/04/05 01:27:58;;;;;;;5.40;2.30;;;13.90;81.20;;;;;;5012357;28;20405;-75
2024/04/05 01:30:24;;;;;;;6.97;2.33;;;14.00;81.20;;;;;;5006633;28;20429;-73
2024/04/05 01:32:58;;;;;;;4.10;2.40;;;14.10;80.80;;;;;;5005566;28;20526;-75
2024/04/05 01:35:24;;;;;;;4.40;2.50;;;14.00;80.80;;;;;;5010414;28;20190;-76
2024/04/05 01:37:50;;;;;;;3.67;2.20;;;13.90;80.90;;;;;;5004478;28;20432;-75
2024/04/05 01:40:16;;;;;;;5.30;2.70;;;13.90;80.90;;;;;;5009915;28;20455;-76
2024/04/05 01:42:42;;;;;;;3.67;2.50;;;13.80;81.10;;;;;;5001156;28;20645;-76
2024/04/05 01:45:08;;;;;;;5.73;2.40;;;13.70;81.80;;;;;;5010413;28;20206;-73
2024/04/05 01:47:34;;;;;;;3.50;2.50;;;13.70;82.10;;;;;;5012814;28;20192;-75
2024/04/05 01:50:00;;;;;;;5.77;2.27;;;13.60;82.20;;;;;;5007225;28;20449;-74
2024/04/05 01:52:26;;;;;;;9.90;3.40;;;13.50;82.50;;;;;;5005819;28;20461;-75
2024/04/05 01:54:52;;;;;;;5.40;2.37;;;13.50;82.70;;;;;;5010005;28;20432;-73
2024/04/05 01:57:18;;;;;;;6.00;2.53;;;13.50;82.80;;;;;;5013855;28;20208;-74
2024/04/05 01:59:51;;;;;;;3.63;2.50;;;13.40;83.00;;;;;;5007397;28;20488;-74
2024/04/05 02:02:16;;;;;;;4.60;2.83;;;13.30;83.10;;;;;;5009102;28;20206;-74
2024/04/05 02:04:43;;;;;;;4.00;2.33;;;13.30;83.30;;;;;;5014627;28;20435;-76
2024/04/05 02:07:08;;;;;;;6.80;2.70;;;13.30;83.40;;;;;;5019492;28;20186;-75
2024/04/05 02:09:34;;;;;;;6.10;2.43;;;13.30;83.30;;;;;;5022392;28;20434;-75
2024/04/05 02:12:00;;;;;;;2.47;2.03;;;13.30;83.60;;;;;;5023719;28;20210;-73
2024/04/05 02:14:26;;;;;;;5.10;2.90;;;13.40;83.40;;;;;;5019562;28;20190;-74
2024/04/05 02:16:59;;;;;;;7.73;2.90;;;13.40;83.30;;;;;;5020045;28;20977;-76
2024/04/05 02:19:25;;;;;;;5.77;3.03;;;13.30;83.30;;;;;;5014375;28;20496;-75
2024/04/05 02:21:50;;;;;;;6.23;2.40;;;13.30;83.30;;;;;;5008036;28;20530;-77
2024/04/05 02:24:16;;;;;;;9.03;2.97;;;13.30;83.70;;;;;;5014089;28;20178;-75
2024/04/05 02:26:42;;;;;;;7.53;2.50;;;13.30;83.70;;;;;;5018933;28;20202;-77
2024/04/05 02:29:08;;;;;;;5.07;2.30;;;13.20;83.80;;;;;;5011453;28;20204;-76
2024/04/05 02:31:33;;;;;;;4.93;2.50;;;13.20;84.00;;;;;;5010206;28;20465;-76
2024/04/05 02:34:00;;;;;;;4.77;2.70;;;13.20;84.00;;;;;;5015677;28;20198;-76
2024/04/05 02:36:25;;;;;;;5.33;2.60;;;13.20;84.00;;;;;;5027437;28;20734;-75
2024/04/05 02:38:51;;;;;;;3.50;2.23;;;13.20;83.80;;;;;;5021736;28;20507;-75
2024/04/05 02:41:17;;;;;;;5.07;2.50;;;13.20;83.70;;;;;;5022979;28;20202;-77
2024/04/05 02:43:42;;;;;;;6.53;2.47;;;13.20;83.60;;;;;;5013474;28;20186;-77
2024/04/05 02:46:08;;;;;;;3.80;2.70;;;13.20;83.70;;;;;;5017870;28;20191;-75
2024/04/05 02:48:35;;;;;;;4.03;2.43;;;13.30;83.70;;;;;;5017561;28;20201;-74
2024/04/05 02:51:02;;;;;;;2.97;2.40;;;13.20;83.40;;;;;;5019138;28;20202;-74
2024/04/05 02:53:27;;;;;;;7.10;2.80;;;13.30;83.60;;;;;;5010290;28;20420;-74
2024/04/05 02:55:54;;;;;;;4.10;2.47;;;13.30;83.30;;;;;;5009822;28;20466;-73
2024/04/05 02:58:20;;;;;;;6.40;2.63;;;13.30;83.10;;;;;;5009563;28;20209;-76
2024/04/05 03:00:46;;;;;;;6.07;2.90;;;13.40;82.80;;;;;;5012624;28;20519;-75
2024/04/05 03:03:11;;;;;;;8.83;2.67;;;13.40;82.80;;;;;;5011679;28;20182;-75
2024/04/05 03:05:37;;;;;;;6.97;3.00;;;13.40;82.80;;;;;;5009641;28;20428;-75
2024/04/05 03:08:04;;;;;;;5.30;2.37;;;13.30;83.10;;;;;;5006043;28;20182;-74
2024/04/05 03:10:30;;;;;;;5.83;2.80;;;13.30;83.10;;;;;;5006356;28;20320;-74
2024/04/05 03:12:56;;;;;;;6.23;2.87;;;13.40;83.00;;;;;;5003996;28;20445;-73
2024/04/05 03:15:22;;;;;;;3.67;2.00;;;13.30;82.80;;;;;;5011511;28;20845;-75
2024/04/05 03:17:48;;;;;;;5.43;3.00;;;13.20;83.30;;;;;;5010461;28;20196;-74
2024/04/05 03:20:13;;;;;;;4.70;2.47;;;13.10;83.40;;;;;;5007649;28;20417;-76
2024/04/05 03:22:40;;;;;;;3.60;2.40;;;13.10;83.70;;;;;;4999760;28;20218;-74
2024/04/05 03:25:08;;;;;;;5.40;2.80;;;13.10;83.70;;;;;;5001302;28;20269;-75
2024/04/05 03:27:34;;;;;;;5.77;3.13;;;13.10;83.80;;;;;;5002110;28;20786;-74
2024/04/05 03:30:02;;;;;;;6.07;3.00;;;13.10;83.80;;;;;;5005701;28;20429;-74
2024/04/05 03:32:28;;;;;;;4.30;2.83;;;13.20;83.80;;;;;;5008799;28;20463;-75
2024/04/05 03:34:54;;;;;;;8.50;3.17;;;13.20;83.80;;;;;;5009014;28;20464;-73
2024/04/05 03:37:24;;;;;;;7.87;2.87;;;13.20;83.70;;;;;;5004078;28;20886;-74
2024/04/05 03:39:53;;;;;;;9.03;3.07;;;13.10;83.70;;;;;;5004849;28;20485;-74
2024/04/05 03:42:20;;;;;;;3.97;2.70;;;13.20;84.00;;;;;;5007655;28;20890;-74
2024/04/05 03:44:46;;;;;;;6.33;2.83;;;13.20;83.80;;;;;;5010324;28;20433;-75
2024/04/05 03:47:12;;;;;;;5.23;2.77;;;13.20;84.00;;;;;;5009599;28;20997;-75
2024/04/05 03:49:38;;;;;;;5.40;2.60;;;13.10;84.00;;;;;;5003259;28;20436;-75
2024/04/05 03:52:04;;;;;;;4.20;2.40;;;13.00;84.00;;;;;;5002119;28;20560;-74
2024/04/05 03:54:30;;;;;;;8.40;2.60;;;13.10;84.00;;;;;;5007425;28;20209;-75
2024/04/05 03:56:55;;;;;;;5.63;2.70;;;13.20;83.80;;;;;;5011156;28;20441;-76
2024/04/05 03:59:21;;;;;;;6.40;2.97;;;13.10;83.70;;;;;;5013264;28;20288;-75
2024/04/05 04:01:51;;;;;;;6.70;3.00;;;13.10;83.70;;;;;;5004189;28;20376;-74
2024/04/05 04:04:16;;;;;;;5.97;3.07;;;13.10;83.70;;;;;;5009909;28;20189;-74
2024/04/05 04:06:42;;;;;;;5.20;3.23;;;13.10;83.70;;;;;;5008042;28;20779;-78
2024/04/05 04:09:08;;;;;;;6.07;2.43;;;13.10;83.80;;;;;;5009372;28;20841;-75
2024/04/05 04:11:35;;;;;;;6.33;3.03;;;13.00;83.70;;;;;;5009024;28;20209;-75
2024/04/05 04:14:00;;;;;;;9.27;3.13;;;13.10;83.70;;;;;;5011521;28;20433;-75
2024/04/05 04:16:26;;;;;;;6.17;3.00;;;13.10;83.70;;;;;;5002177;28;20504;-75
2024/04/05 04:18:51;;;;;;;4.63;2.80;;;13.10;83.70;;;;;;5012177;28;20208;-74
2024/04/05 04:21:17;;;;;;;4.63;2.90;;;13.00;83.70;;;;;;5008423;28;20264;-75
2024/04/05 04:23:43;;;;;;;3.50;2.70;;;13.00;83.70;;;;;;5005760;28;20516;-77
2024/04/05 04:26:08;;;;;;;5.60;3.30;;;13.00;83.80;;;;;;5010052;28;20205;-75
2024/04/05 04:28:34;;;;;;;5.27;2.60;;;13.00;83.80;;;;;;5012226;28;20441;-75
2024/04/05 04:31:15;;;;;;;5.30;2.83;;;13.00;83.80;;;;;;5012014;28;20205;-74
2024/04/05 04:33:41;;;;;;;3.33;2.80;;;12.90;83.70;;;;;;5016463;28;20596;-76
2024/04/05 04:36:07;;;;;;;5.20;2.80;;;12.90;84.00;;;;;;5014888;28;20417;-75
2024/04/05 04:38:33;;;;;;;6.07;3.07;;;12.90;84.00;;;;;;5017619;28;20474;-75
2024/04/05 04:40:59;;;;;;;4.97;2.90;;;12.90;84.00;;;;;;5019922;28;20230;-77
2024/04/05 04:43:25;;;;;;;9.40;2.80;;;13.00;84.00;;;;;;5013331;28;20200;-74
2024/04/05 04:45:51;;;;;;;8.90;3.40;;;12.90;83.80;;;;;;5008852;28;20515;-74
2024/04/05 04:48:16;;;;;;;4.50;3.00;;;12.80;84.00;;;;;;5013103;28;20449;-76
2024/04/05 04:50:44;;;;;;;5.00;2.90;;;12.80;84.10;;;;;;5008477;28;20240;-78
2024/04/05 04:53:10;;;;;;;4.83;2.70;;;12.90;84.10;;;;;;5005152;28;20190;-74
2024/04/05 04:55:37;;;;;;;6.10;2.60;;;12.80;84.00;;;;;;5005041;28;20437;-76
2024/04/05 04:58:03;;;;;;;10.50;3.40;;;12.80;84.30;;;;;;5008966;28;20422;-74
2024/04/05 05:00:28;;;;;;;6.40;3.37;;;12.80;84.10;;;;;;5011937;28;20801;-75
2024/04/05 05:02:54;;;;;;;7.63;3.53;;;12.60;84.10;;;;;;5007096;28;20721;-76
2024/04/05 05:05:20;;;;;;;5.70;3.30;;;12.60;84.60;;;;;;5013222;28;20181;-74
2024/04/05 05:07:45;;;;;;;6.97;3.03;;;12.70;84.70;;;;;;5011765;28;20197;-75
2024/04/05 05:10:11;;;;;;;6.93;3.60;;;12.60;84.70;;;;;;5000123;28;20544;-74
2024/04/05 05:12:37;;;;;;;6.80;3.70;;;12.60;84.60;;;;;;5009276;28;20710;-75
2024/04/05 05:15:03;;;;;;;5.90;3.60;;;12.60;84.90;;;;;;5004013;28;20183;-75
2024/04/05 05:17:29;;;;;;;7.77;3.37;;;12.50;84.90;;;;;;5011698;28;20886;-74
2024/04/05 05:19:55;;;;;;;5.43;3.53;;;12.60;84.90;;;;;;5007349;28;20484;-76
2024/04/05 05:22:20;;;;;;;5.13;3.40;;;12.60;84.90;;;;;;5004284;28;20484;-75
2024/04/05 05:24:47;;;;;;;3.80;3.13;;;12.60;84.70;;;;;;5005927;28;20189;-74
2024/04/05 05:27:13;;;;;;;4.87;3.57;;;12.60;84.90;;;;;;5010028;28;20186;-75
2024/04/05 05:29:39;;;;;;;9.20;4.00;;;12.60;84.90;;;;;;5010071;28;20495;-75
2024/04/05 05:32:11;;;;;;;5.53;3.30;;;12.60;84.90;;;;;;5002838;28;20205;-73
2024/04/05 05:34:38;;;;;;;5.50;2.97;;;12.60;84.90;;;;;;5000704;28;20471;-75
2024/04/05 05:37:05;;;;;;;8.83;3.63;;;12.60;85.00;;;;;;5004528;28;20524;-75
2024/04/05 05:39:32;;;;;;;7.50;3.40;;;12.70;84.70;;;;;;5009707;28;20472;-75
2024/04/05 05:41:57;;;;;;;6.13;4.00;;;12.60;84.70;;;;;;5004562;28;20452;-74
2024/04/05 05:44:23;;;;;;;5.83;3.13;;;12.70;84.90;;;;;;5004015;28;20958;-75
2024/04/05 05:46:48;;;;;;;12.70;3.23;;;12.70;84.60;;;;;;5000310;28;20190;-76
2024/04/05 05:49:14;;;;;;;5.73;3.17;;;12.60;84.70;;;;;;5002721;28;20276;-74
2024/04/05 05:51:41;;;;;;;6.03;3.20;;;12.60;84.90;;;;;;4993874;28;20722;-73
2024/04/05 05:54:08;;;;;;;8.90;3.43;;;12.70;84.90;;;;;;5000753;28;20509;-75
2024/04/05 05:56:33;;;;;;;3.53;2.50;;;12.60;84.90;;;;;;5005616;28;20190;-73
2024/04/05 05:58:59;;;;;;;6.40;3.43;;;12.60;85.00;;;;;;5006266;28;20522;-74
2024/04/05 06:01:24;;;;;;;7.43;3.50;;;12.60;85.00;;;;;;5004074;28;20784;-73
2024/04/05 06:03:50;;;;;;;10.67;3.90;;;12.70;85.20;;;;;;5006451;28;20189;-74
2024/04/05 06:06:16;;;;;;;6.83;3.80;;;12.70;85.00;;;;;;5000594;28;20259;-74
2024/04/05 06:08:42;;;;;;;4.60;3.00;;;12.80;84.90;;;;;;5010025;28;20182;-76
2024/04/05 06:11:08;;;;;;;7.93;3.40;;;12.80;84.90;;;;;;5006310;28;20477;-74
2024/04/05 06:13:33;;;;;;;5.53;2.80;;;12.90;84.60;;;;;;5011980;28;20193;-75
2024/04/05 06:15:59;;;;;;;6.77;4.20;;;13.00;84.30;;;;;;5004220;28;20445;-74
2024/04/05 06:18:27;;;;;;;6.43;3.07;;;13.10;83.80;;;;;;5007425;28;20245;-75
2024/04/05 06:20:57;;;;;;;4.80;2.87;;;13.10;83.60;;;;;;5009933;28;20185;-76
2024/04/05 06:23:26;;;;;;;9.47;4.30;;;13.20;83.00;;;;;;5010266;28;20534;-78
2024/04/05 06:25:57;;;;;;;12.23;3.67;;;13.20;82.70;;;;;;5018283;28;20437;-74
2024/04/05 06:28:22;;;;;;;12.63;3.90;;;13.30;82.50;;;;;;5016454;28;20430;-75
2024/04/05 06:30:49;;;;;;;8.53;3.90;;;13.50;81.70;;;;;;5026886;28;20433;-75
2024/04/05 06:33:15;;;;;;;12.90;5.07;;;13.60;81.20;;;;;;5025587;28;20554;-75
2024/04/05 06:35:41;;;;;;;8.97;3.70;;;13.60;80.90;;;;;;5015085;28;20439;-76
2024/04/05 06:38:09;;;;;;;7.30;3.50;;;13.60;81.20;;;;;;5010802;28;20429;-75
2024/04/05 06:40:36;;;;;;;6.80;3.83;;;13.70;81.40;;;;;;5007905;28;20441;-77
2024/04/05 06:43:06;;;;;;;10.83;4.90;;;13.80;81.20;;;;;;5009547;28;20473;-75
2024/04/05 06:45:32;;;;;;;12.67;7.23;;;13.90;81.20;;;;;;5018067;28;20457;-76
2024/04/05 06:48:01;;;;;;;15.80;7.70;;;14.10;81.10;;;;;;5012640;28;20445;-76
2024/04/05 06:50:31;;;;;;;7.60;5.30;;;14.20;80.80;;;;;;5007258;28;20202;-75
2024/04/05 06:53:00;;;;;;;9.63;5.20;;;14.40;79.30;;;;;;5008820;28;20973;-76
2024/04/05 06:55:26;;;;;;;10.03;4.37;;;14.40;78.60;;;;;;5002076;28;20453;-74
2024/04/05 06:57:52;;;;;;;12.20;4.37;;;14.50;77.60;;;;;;5004505;28;20439;-75
2024/04/05 07:00:18;;;;;;;7.93;3.47;;;14.60;77.60;;;;;;5014516;28;20489;-75
2024/04/05 07:02:43;;;;;;;10.80;4.17;;;14.80;77.00;;;;;;5010556;28;20462;-76
2024/04/05 07:05:09;;;;;;;6.23;3.53;;;15.10;76.50;;;;;;5011367;28;20194;-76
2024/04/05 07:07:34;;;;;;;6.87;3.30;;;15.30;75.70;;;;;;5004833;28;20813;-77
2024/04/05 07:10:00;;;;;;;9.53;2.77;;;15.30;75.40;;;;;;5008407;28;20217;-76
2024/04/05 07:12:26;;;;;;;4.87;2.80;;;15.40;74.00;;;;;;5016166;28;20274;-75
2024/04/05 07:14:51;;;;;;;8.20;3.77;;;15.60;73.90;;;;;;5023878;28;20204;-75
2024/04/05 07:17:17;;;;;;;14.00;8.40;;;15.70;73.20;;;;;;5024165;28;20198;-74
2024/04/05 07:19:42;;;;;;;11.87;6.87;;;15.90;72.70;;;;;;5018911;28;20232;-75
2024/04/05 07:22:11;;;;;;;6.70;3.27;;;15.90;72.10;;;;;;5018815;28;20316;-76
2024/04/05 07:24:37;;;;;;;6.70;2.80;;;16.10;71.70;;;;;;5014612;28;20419;-76
2024/04/05 07:27:02;;;;;;;4.93;2.20;;;16.20;71.00;;;;;;5009463;28;21339;-76
2024/04/05 07:29:28;;;;;;;5.70;3.00;;;16.30;70.20;;;;;;5003559;28;20200;-76
2024/04/05 07:31:53;;;;;;;4.90;2.90;;;16.50;70.20;;;;;;5002169;28;20221;-77
2024/04/05 07:34:20;;;;;;;6.03;2.67;;;16.70;70.10;;;;;;5011886;28;20197;-76
2024/04/05 07:36:46;;;;;;;4.73;2.40;;;16.90;70.40;;;;;;5010517;28;20205;-77
2024/04/05 07:39:14;;;;;;;4.83;2.40;;;17.10;69.40;;;;;;5002042;28;20563;-74
2024/04/05 07:41:40;;;;;;;6.47;3.23;;;17.30;68.50;;;;;;5005379;28;20220;-75
2024/04/05 07:44:06;;;;;;;3.47;2.17;;;17.40;68.00;;;;;;4999969;28;20433;-75
2024/04/05 07:46:32;;;;;;;5.03;2.37;;;17.30;67.20;;;;;;5008000;28;20248;-79
2024/04/05 07:48:58;;;;;;;5.80;2.30;;;17.30;67.20;;;;;;5007893;28;20472;-76
2024/04/05 07:51:23;;;;;;;6.83;2.50;;;17.40;67.00;;;;;;5006157;28;20227;-74
2024/04/05 07:53:49;;;;;;;9.47;2.90;;;17.30;67.30;;;;;;5007903;28;20186;-73
2024/04/05 07:56:14;;;;;;;7.90;2.70;;;17.20;67.00;;;;;;5009939;28;20186;-74
2024/04/05 07:58:40;;;;;;;4.57;2.00;;;17.20;66.90;;;;;;5013600;28;20217;-77
2024/04/05 08:01:07;;;;;;;4.33;2.20;;;17.20;67.00;;;;;;5008729;28;20289;-74
2024/04/05 08:03:33;;;;;;;3.50;2.30;;;17.40;66.70;;;;;;5015003;28;20189;-74
2024/04/05 08:06:00;;;;;;;4.70;2.57;;;17.30;66.90;;;;;;5011715;28;20439;-75
2024/04/05 08:08:27;;;;;;;4.97;2.63;;;17.30;67.50;;;;;;5009302;28;20512;-74
2024/04/05 08:11:03;;;;;;;4.10;2.23;;;17.30;67.50;;;;;;4997563;28;20440;-76
2024/04/05 08:13:29;;;;;;;4.80;2.10;;;17.20;67.30;;;;;;5009012;28;20436;-76
2024/04/05 08:15:54;;;;;;;6.40;2.10;;;17.20;67.60;;;;;;5005187;28;20413;-74
2024/04/05 08:18:20;;;;;;;9.20;2.63;;;17.30;67.20;;;;;;5009314;28;20568;-75
2024/04/05 08:20:45;;;;;;;2.90;2.00;;;17.40;67.00;;;;;;5005178;28;20506;-74
2024/04/05 08:23:11;;;;;;;3.30;1.67;;;17.40;67.00;;;;;;5000661;28;20203;-74
2024/04/05 08:25:37;;;;;;;4.10;1.70;;;17.50;66.40;;;;;;5010104;28;20246;-73
2024/04/05 08:28:03;;;;;;;3.10;1.73;;;17.40;66.10;;;;;;5012049;28;20193;-75
2024/04/05 08:30:28;;;;;;;5.30;1.80;;;17.50;66.10;;;;;;5011265;28;20201;-74
2024/04/05 08:32:54;;;;;;;3.33;1.97;;;17.50;66.10;;;;;;5006510;28;20201;-74
2024/04/05 08:35:19;;;;;;;5.10;1.90;;;17.60;65.10;;;;;;5009017;28;20191;-75
2024/04/05 08:37:45;;;;;;;3.60;1.53;;;17.60;65.10;;;;;;5012295;28;20205;-74
2024/04/05 08:40:11;;;;;;;3.20;1.90;;;17.70;64.80;;;;;;5005465;28;20229;-75
2024/04/05 08:42:38;;;;;;;5.33;2.23;;;17.90;64.80;;;;;;5005990;28;20214;-75
2024/04/05 08:45:09;;;;;;;9.53;1.93;;;18.00;64.10;;;;;;5013293;28;20441;-76
2024/04/05 08:47:37;;;;;;;6.30;1.80;;;18.20;63.40;;;;;;5009353;28;20445;-74
2024/04/05 08:50:08;;;;;;;4.63;1.70;;;18.10;63.40;;;;;;5009407;28;20540;-74
2024/04/05 08:52:34;;;;;;;4.67;2.03;;;18.20;63.20;;;;;;5001780;28;20470;-75
2024/04/05 08:55:00;;;;;;;4.10;1.87;;;18.30;63.10;;;;;;5007576;28;20816;-75
2024/04/05 08:57:37;;;;;;;4.77;2.03;;;18.30;62.90;;;;;;5010505;28;20431;-74
2024/04/05 09:00:07;;;;;;;6.10;1.80;;;18.50;62.60;;;;;;5005321;28;20537;-75
2024/04/05 09:02:38;;;;;;;4.70;1.80;;;18.50;62.60;;;;;;5006266;28;20474;-75
2024/04/05 09:05:04;;;;;;;3.93;2.00;;;18.70;62.50;;;;;;5006812;28;20448;-75
2024/04/05 09:07:30;;;;;;;6.73;2.23;;;18.70;62.60;;;;;;5006501;28;21033;-76
2024/04/05 09:09:56;;;;;;;3.33;2.10;;;18.70;62.50;;;;;;5007995;28;20427;-74
2024/04/05 09:12:22;;;;;;;4.83;1.83;;;18.80;62.30;;;;;;5006363;28;20668;-75
2024/04/05 09:15:00;;;;;;;2.70;1.50;;;18.90;61.70;;;;;;5008524;28;20184;-75
2024/04/05 09:17:26;;;;;;;3.83;1.77;;;19.00;61.60;;;;;;5005802;28;20449;-74
2024/04/05 09:20:12;;;;;;;6.20;1.97;;;19.00;60.90;;;;;;5011252;28;20469;-75
2024/04/05 09:22:41;;;;;;;2.93;1.60;;;19.10;61.20;;;;;;5009307;28;20476;-75
2024/04/05 09:25:06;;;;;;;3.10;2.10;;;19.10;61.20;;;;;;5010350;28;20488;-75
2024/04/05 09:27:33;;;;;;;6.80;1.93;;;19.20;61.90;;;;;;5008608;28;20427;-74
2024/04/05 09:30:05;;;;;;;3.67;1.60;;;19.30;61.60;;;;;;5008781;28;20186;-75
2024/04/05 09:32:31;;;;;;;2.63;1.97;;;19.40;60.90;;;;;;5003565;28;20902;-74
2024/04/05 09:34:57;;;;;;;5.20;2.40;;;19.40;61.50;;;;;;5006060;28;20445;-74
2024/04/05 09:37:27;;;;;;;4.57;1.67;;;19.50;61.50;;;;;;5015040;28;20205;-74
2024/04/05 09:39:55;;;;;;;2.63;1.80;;;19.50;61.70;;;;;;5006527;28;20499;-75
2024/04/05 09:42:24;;;;;;;3.30;1.80;;;19.50;62.00;;;;;;4997736;28;20469;-75
2024/04/05 09:44:58;;;;;;;3.80;1.67;;;19.70;61.60;;;;;;5012902;28;20421;-74
2024/04/05 09:47:25;;;;;;;3.33;1.97;;;19.90;61.30;;;;;;5011900;28;20495;-75
2024/04/05 09:49:51;;;;;;;3.50;1.87;;;20.00;60.90;;;;;;5017603;28;20463;-74
2024/04/05 09:52:24;;;;;;;4.33;1.50;;;20.00;60.40;;;;;;5009619;28;20454;-76
2024/04/05 09:54:55;;;;;;;5.80;1.90;;;20.10;60.60;;;;;;5011543;28;20483;-74
2024/04/05 09:57:21;;;;;;;4.73;1.60;;;20.00;60.60;;;;;;5010345;28;20414;-73
2024/04/05 09:59:49;;;;;;;2.97;1.70;;;20.20;61.00;;;;;;5011202;28;20845;-76
2024/04/05 10:02:18;;;;;;;3.57;1.63;;;20.30;60.60;;;;;;5010171;28;20301;-74
2024/04/05 10:04:44;;;;;;;3.90;1.60;;;20.60;58.80;;;;;;5010974;28;20427;-75
2024/04/05 10:07:11;;;;;;;5.20;1.80;;;20.70;58.80;;;;;;5004896;28;20434;-76
2024/04/05 10:09:38;;;;;;;3.50;1.70;;;20.80;58.20;;;;;;5011096;28;20450;-76
2024/04/05 10:12:16;;;;;;;2.97;1.60;;;20.80;56.50;;;;;;5001057;28;20986;-75
2024/04/05 10:14:55;;;;;;;6.00;1.50;;;20.90;56.10;;;;;;5013263;28;20528;-74
2024/04/05 10:17:27;;;;;;;2.43;1.30;;;21.00;56.20;;;;;;5008475;28;20470;-77
2024/04/05 10:20:06;;;;;;;4.83;1.50;;;21.00;56.40;;;;;;5003550;28;20491;-74
2024/04/05 10:22:35;;;;;;;3.43;1.50;;;21.20;55.80;;;;;;5002068;28;20925;-76
2024/04/05 10:25:02;;;;;;;5.47;1.60;;;21.20;55.40;;;;;;5012402;28;20428;-76
2024/04/05 10:27:28;;;;;;;1.93;1.40;;;21.20;55.40;;;;;;5009261;28;20455;-75
2024/04/05 10:30:01;;;;;;;2.63;1.60;;;21.30;55.60;;;;;;5010902;28;20816;-76
2024/04/05 10:32:29;;;;;;;4.40;1.70;;;21.50;54.40;;;;;;5007482;28;20494;-74
2024/04/05 10:35:08;;;;;;;6.10;1.60;;;21.70;55.60;;;;;;5007370;28;20450;-74
2024/04/05 10:37:38;;;;;;;3.53;1.57;;;21.80;52.40;;;;;;5014552;28;20478;-74
2024/04/05 10:40:10;;;;;;;6.30;1.67;;;22.00;52.80;;;;;;5012002;28;20996;-75
2024/04/05 10:42:36;;;;;;;6.70;1.57;;;22.30;52.40;;;;;;5008761;28;20534;-75
2024/04/05 10:45:04;;;;;;;2.30;1.40;;;22.60;51.00;;;;;;5021293;28;20511;-75
2024/04/05 10:47:33;;;;;;;2.40;1.57;;;22.60;48.90;;;;;;5016527;28;20431;-74
2024/04/05 10:50:05;;;;;;;2.03;1.30;;;22.50;47.70;;;;;;5028533;28;20449;-75
2024/04/05 10:52:33;;;;;;;4.73;1.50;;;22.50;48.70;;;;;;5019302;28;20461;-74
2024/04/05 10:55:12;;;;;;;4.73;1.70;;;22.60;49.80;;;;;;5025288;28;20507;-74
2024/04/05 10:57:38;;;;;;;5.80;1.50;;;22.60;48.20;;;;;;5015720;28;20435;-75
2024/04/05 11:00:05;;;;;;;1.33;1.00;;;22.60;49.30;;;;;;5018651;28;20485;-76
2024/04/05 11:02:31;;;;;;;2.10;1.47;;;22.60;49.40;;;;;;5012770;28;20469;-75
2024/04/05 11:05:09;;;;;;;4.20;1.50;;;22.70;49.80;;;;;;5013470;28;20486;-75
2024/04/05 11:07:34;;;;;;;3.90;1.50;;;22.70;49.80;;;;;;5009187;28;20457;-75
2024/04/05 11:10:00;;;;;;;2.77;1.40;;;22.70;49.70;;;;;;5015040;28;20822;-77
2024/04/05 11:12:26;;;;;;;2.30;1.30;;;22.90;49.70;;;;;;5007594;28;20651;-77
2024/04/05 11:15:12;;;;;;;4.13;1.30;;;23.00;49.00;;;;;;5007111;28;20204;-75
2024/04/05 11:17:38;;;;;;;3.50;1.50;;;23.10;49.00;;;;;;5008366;28;20231;-76
2024/04/05 11:20:05;;;;;;;2.53;1.40;;;23.10;48.60;;;;;;5009248;28;20849;-75
2024/04/05 11:22:31;;;;;;;6.37;1.93;;;23.20;47.90;;;;;;5005423;28;20991;-75
2024/04/05 11:24:57;;;;;;;2.90;1.50;;;23.10;47.10;;;;;;5010754;28;20421;-76
2024/04/05 11:27:22;;;;;;;2.10;1.10;;;23.00;47.00;;;;;;5011638;28;20244;-75
2024/04/05 11:29:48;;;;;;;4.60;1.40;;;23.00;46.60;;;;;;5009682;28;20195;-74
2024/04/05 11:32:29;;;;;;;3.47;1.67;;;22.80;46.70;;;;;;5002980;28;20206;-77
2024/04/05 11:35:02;;;;;;;4.40;1.70;;;22.80;47.10;;;;;;5011637;28;20568;-76
2024/04/05 11:37:28;;;;;;;3.37;1.23;;;22.90;47.30;;;;;;5009673;28;20423;-76
2024/04/05 11:39:58;;;;;;;2.00;1.20;;;23.00;46.70;;;;;;5011745;28;21019;-76
2024/04/05 11:42:24;;;;;;;3.83;1.30;;;22.80;46.70;;;;;;5004056;28;20478;-75
2024/04/05 11:44:50;;;;;;;3.93;1.57;;;22.70;47.00;;;;;;5013071;28;20444;-74
2024/04/05 11:47:21;;;;;;;4.47;1.27;;;22.60;47.70;;;;;;5014975;28;20525;-75
2024/04/05 11:49:50;;;;;;;2.03;1.50;;;22.60;48.20;;;;;;5011436;28;20198;-76
2024/04/05 11:52:16;;;;;;;3.97;1.50;;;22.60;48.50;;;;;;5005223;28;20832;-75
2024/04/05 11:54:43;;;;;;;2.53;1.37;;;22.40;48.60;;;;;;5012174;28;20436;-75
2024/04/05 11:57:14;;;;;;;3.03;1.37;;;22.30;49.10;;;;;;5008538;28;20250;-75
2024/04/05 11:59:42;;;;;;;1.87;1.20;;;22.40;49.50;;;;;;5008067;28;20478;-74
2024/04/05 12:02:08;;;;;;;3.20;1.70;;;22.50;49.80;;;;;;5003515;28;20504;-75
2024/04/05 12:04:34;;;;;;;5.93;1.40;;;22.50;49.90;;;;;;5008834;28;20884;-74
2024/04/05 12:06:59;;;;;;;2.50;1.37;;;22.50;50.10;;;;;;5002156;28;20418;-74
2024/04/05 12:09:25;;;;;;;1.63;0.90;;;22.50;49.80;;;;;;5012748;28;20645;-75
2024/04/05 12:11:52;;;;;;;2.90;1.30;;;22.40;50.20;;;;;;5018971;28;20207;-74
2024/04/05 12:14:20;;;;;;;2.77;1.50;;;22.40;50.50;;;;;;5029378;28;20197;-73
2024/04/05 12:16:46;;;;;;;7.30;1.70;;;22.60;50.10;;;;;;5027032;28;20557;-75
2024/04/05 12:19:11;;;;;;;2.87;1.60;;;22.50;49.70;;;;;;5009724;28;20998;-76
2024/04/05 12:21:37;;;;;;;5.00;2.10;;;22.60;50.10;;;;;;5006735;28;20467;-75
2024/04/05 12:24:03;;;;;;;4.30;1.80;;;22.80;49.40;;;;;;5006780;28;20184;-75
2024/04/05 12:26:28;;;;;;;6.47;1.77;;;23.00;49.10;;;;;;5007532;28;20198;-75
2024/04/05 12:28:54;;;;;;;2.13;1.23;;;23.20;48.20;;;;;;5016213;28;20284;-73
2024/04/05 12:31:20;;;;;;;4.80;1.30;;;23.50;48.10;;;;;;5002334;28;20783;-75
2024/04/05 12:33:46;;;;;;;3.10;1.43;;;23.60;47.70;;;;;;5007801;28;20837;-78
2024/04/05 12:36:13;;;;;;;4.20;1.63;;;23.90;46.90;;;;;;5008085;28;20443;-76
2024/04/05 12:38:41;;;;;;;4.23;2.00;;;23.90;45.80;;;;;;5007319;28;20224;-75
2024/04/05 12:41:07;;;;;;;3.87;1.37;;;23.90;46.20;;;;;;5004224;28;20463;-75
2024/04/05 12:43:34;;;;;;;3.73;1.40;;;23.90;46.90;;;;;;5008000;28;20844;-75
2024/04/05 12:46:03;;;;;;;1.50;1.30;;;23.80;47.30;;;;;;5009449;28;20471;-73